Time;durP1;ratioP1;P1;durP2;ratioP2;P2;SDS_P1;SDS_P2;PMS_P1;PMS_P2;Temp;Humidity;BMP_temperature;BMP_pressure;BME280_temperature;BME280_humidity;BME280_pressure;Samples;Min_cycle;Max_cycle;Signal;HPM_P1;HPM_P2
2022/05/23 00:00:17;;;;;;;5.85;3.08;;;12.30;1.00;;;;;;5020339;28;20010;-82
2022/05/23 00:02:44;;;;;;;3.40;3.10;;;12.40;1.00;;;;;;5019938;28;20022;-82
2022/05/23 00:05:10;;;;;;;5.47;3.38;;;12.30;1.00;;;;;;5020079;28;20232;-82
2022/05/23 00:07:40;;;;;;;6.95;3.30;;;12.30;1.00;;;;;;5019904;28;20018;-82
2022/05/23 00:10:06;;;;;;;;;;;12.40;1.00;;;;;;5012236;28;20041;-82
2022/05/23 00:12:32;;;;;;;4.28;2.97;;;12.60;1.00;;;;;;5011643;28;19929;-82
2022/05/23 00:14:58;;;;;;;6.43;3.38;;;12.60;1.00;;;;;;5019467;28;20098;-82
2022/05/23 00:17:24;;;;;;;5.25;3.50;;;12.70;1.00;;;;;;5019433;28;20050;-82
2022/05/23 00:19:50;;;;;;;6.57;3.78;;;12.70;1.00;;;;;;5030502;28;20029;-82
2022/05/23 00:22:16;;;;;;;6.05;3.42;;;12.70;1.00;;;;;;5019569;28;20015;-82
2022/05/23 00:24:42;;;;;;;4.05;3.45;;;12.50;1.00;;;;;;5011988;28;20022;-82
2022/05/23 00:27:10;;;;;;;4.13;3.03;;;12.60;1.00;;;;;;5026530;28;20100;-82
2022/05/23 00:29:35;;;;;;;4.70;3.70;;;12.50;1.00;;;;;;5002109;28;20038;-82
2022/05/23 00:37:29;;;;;;;4.85;3.47;;;12.50;1.00;;;;;;5003719;28;20038;-82
2022/05/23 00:39:56;;;;;;;6.90;3.33;;;12.70;1.00;;;;;;5019167;28;20018;-82
2022/05/23 00:45:13;;;;;;;7.95;3.75;;;12.70;1.00;;;;;;5018680;28;20037;-83
2022/05/23 00:47:39;;;;;;;4.65;3.38;;;12.80;1.00;;;;;;4987481;28;20019;-82
2022/05/23 00:50:06;;;;;;;5.82;3.47;;;12.80;1.00;;;;;;5019213;28;20037;-82
2022/05/23 00:52:37;;;;;;;4.57;3.50;;;12.90;1.00;;;;;;5003235;28;20029;-82
2022/05/23 00:55:10;;;;;;;6.20;3.20;;;12.90;1.00;;;;;;5018917;28;20023;-82
2022/05/23 00:57:40;;;;;;;5.03;3.13;;;13.00;1.00;;;;;;4979047;28;20046;-82
2022/05/23 01:00:08;;;;;;;4.07;3.45;;;13.00;1.00;;;;;;4999473;28;20037;-81
2022/05/23 01:02:36;;;;;;;5.55;3.28;;;12.90;1.00;;;;;;4998960;28;20030;-82
2022/05/23 01:05:06;;;;;;;6.10;3.17;;;13.00;1.00;;;;;;4999251;28;20015;-82
2022/05/23 01:07:32;;;;;;;5.10;3.35;;;13.10;1.00;;;;;;4998396;28;20047;-82
2022/05/23 01:09:57;;;;;;;5.20;3.10;;;13.10;1.00;;;;;;4999371;28;20026;-81
2022/05/23 01:12:24;;;;;;;7.63;3.63;;;13.10;1.00;;;;;;4998966;28;20083;-82
2022/05/23 01:14:55;;;;;;;8.55;3.63;;;13.10;1.00;;;;;;4999332;28;20272;-82
2022/05/23 01:17:22;;;;;;;4.22;3.30;;;13.00;1.00;;;;;;4999108;28;20040;-82
2022/05/23 01:19:48;;;;;;;6.07;3.40;;;13.00;1.00;;;;;;4999391;28;20007;-82
2022/05/23 01:22:29;;;;;;;4.20;3.28;;;13.10;1.00;;;;;;4998561;28;20078;-82
2022/05/23 01:25:52;;;;;;;5.97;3.20;;;13.20;1.00;;;;;;4987883;28;20015;-82
2022/05/23 01:28:18;;;;;;;3.70;3.40;;;13.10;1.00;;;;;;4924337;29;20020;-82
2022/05/23 01:30:45;;;;;;;5.45;3.95;;;13.10;1.00;;;;;;4930096;29;20028;-82
2022/05/23 01:33:12;;;;;;;4.15;3.70;;;13.20;1.00;;;;;;4958339;28;20099;-82
2022/05/23 01:35:38;;;;;;;4.78;3.35;;;13.20;1.00;;;;;;4989714;28;20050;-82
2022/05/23 01:38:05;;;;;;;4.50;3.33;;;13.10;1.00;;;;;;4998791;28;20030;-81
2022/05/23 01:40:31;;;;;;;5.90;3.70;;;13.10;1.00;;;;;;4991175;28;20096;-82
2022/05/23 01:42:57;;;;;;;6.15;3.40;;;13.10;1.00;;;;;;4979483;28;20019;-82
2022/05/23 01:45:25;;;;;;;6.50;3.42;;;13.10;1.00;;;;;;4994176;28;20030;-82
2022/05/23 01:47:51;;;;;;;5.72;3.40;;;13.10;1.00;;;;;;4988617;28;20015;-82
2022/05/23 01:50:16;;;;;;;4.88;3.53;;;13.10;1.00;;;;;;4970171;28;20020;-83
2022/05/23 01:52:42;;;;;;;4.65;3.10;;;13.00;1.00;;;;;;4996238;28;20035;-83
2022/05/23 01:55:09;;;;;;;7.07;3.85;;;12.90;1.00;;;;;;4973834;28;20130;-82
2022/05/23 01:57:35;;;;;;;6.05;4.13;;;12.80;1.00;;;;;;5005368;28;20053;-82
2022/05/23 02:02:47;;;;;;;4.32;3.40;;;12.70;1.00;;;;;;5007363;28;20107;-83
2022/05/23 02:05:17;;;;;;;4.10;3.20;;;12.70;1.00;;;;;;5009304;28;20057;-82
2022/05/23 02:07:43;;;;;;;4.80;3.88;;;12.60;1.00;;;;;;5016622;28;20053;-81
2022/05/23 02:10:10;;;;;;;3.88;3.40;;;12.50;1.00;;;;;;5017642;28;20102;-82
2022/05/23 02:12:36;;;;;;;4.05;3.47;;;12.40;1.00;;;;;;5017793;28;20082;-82
2022/05/23 02:15:02;;;;;;;4.88;3.47;;;12.30;1.00;;;;;;5010096;28;20034;-82
2022/05/23 02:17:27;;;;;;;5.40;3.40;;;12.30;1.00;;;;;;5012336;28;20026;-82
2022/05/23 02:19:53;;;;;;;4.63;4.10;;;12.20;1.00;;;;;;5006602;28;20019;-82
2022/05/23 02:22:18;;;;;;;6.57;3.90;;;12.20;1.00;;;;;;5009311;28;20021;-82
2022/05/23 02:24:44;;;;;;;6.07;3.65;;;12.10;1.00;;;;;;5017359;28;20034;-82
2022/05/23 02:27:10;;;;;;;4.53;3.85;;;12.00;1.00;;;;;;5017895;28;20037;-82
2022/05/23 02:29:36;;;;;;;7.53;4.05;;;12.00;1.00;;;;;;5017375;28;20038;-82
2022/05/23 02:32:01;;;;;;;6.88;4.13;;;11.90;1.00;;;;;;5007925;28;20070;-81
2022/05/23 02:34:27;;;;;;;4.63;4.13;;;11.80;1.00;;;;;;5009780;28;20031;-81
2022/05/23 02:36:53;;;;;;;5.47;4.20;;;11.70;1.00;;;;;;5016465;28;20113;-81
2022/05/23 02:39:19;;;;;;;5.40;4.13;;;11.70;1.00;;;;;;5015878;28;20022;-81
2022/05/23 02:41:44;;;;;;;4.07;3.60;;;11.70;1.00;;;;;;5016682;28;20038;-82
2022/05/23 02:44:10;;;;;;;8.50;4.07;;;11.60;1.00;;;;;;5007187;28;20027;-82
2022/05/23 02:46:36;;;;;;;6.50;3.95;;;11.60;1.00;;;;;;4997049;28;20019;-82
2022/05/23 02:49:01;;;;;;;4.95;4.13;;;11.60;1.00;;;;;;5013796;28;20038;-82
2022/05/23 02:51:28;;;;;;;6.00;4.20;;;11.50;1.00;;;;;;5005255;28;20018;-81
2022/05/23 02:53:53;;;;;;;4.35;3.95;;;11.50;1.00;;;;;;5005177;28;20041;-81
2022/05/23 02:56:19;;;;;;;5.53;4.20;;;11.40;1.00;;;;;;4996720;28;20058;-81
2022/05/23 02:58:44;;;;;;;5.43;4.25;;;11.20;1.00;;;;;;5002543;28;20022;-81
2022/05/23 03:01:11;;;;;;;4.95;4.10;;;11.20;1.00;;;;;;5016128;28;20040;-82
2022/05/23 03:03:39;;;;;;;5.43;4.20;;;11.30;1.00;;;;;;4995411;28;20069;-82
2022/05/23 03:06:05;;;;;;;5.88;4.18;;;11.30;1.00;;;;;;5013394;28;20073;-81
2022/05/23 03:08:31;;;;;;;4.63;3.72;;;11.30;1.00;;;;;;5008618;28;20023;-82
2022/05/23 03:10:59;;;;;;;4.13;3.72;;;11.20;1.00;;;;;;5016526;28;20053;-82
2022/05/23 03:13:25;;;;;;;5.43;4.28;;;11.20;1.00;;;;;;5008998;28;20026;-82
2022/05/23 03:15:51;;;;;;;6.85;4.45;;;11.20;1.00;;;;;;5010649;28;20060;-81
2022/05/23 03:18:17;;;;;;;4.60;4.20;;;11.20;1.00;;;;;;5014043;28;20050;-82
2022/05/23 03:20:43;;;;;;;6.30;4.45;;;11.30;1.00;;;;;;5016055;28;20027;-81
2022/05/23 03:28:40;;;;;;;5.90;4.50;;;11.30;1.00;;;;;;5009581;28;20025;-81
2022/05/23 03:31:06;;;;;;;5.57;4.10;;;11.20;1.00;;;;;;5016768;28;20030;-81
2022/05/23 03:33:32;;;;;;;6.72;4.78;;;11.10;1.00;;;;;;5016568;28;20022;-82
2022/05/23 03:35:57;;;;;;;6.90;4.53;;;11.20;1.00;;;;;;4998877;28;20037;-82
2022/05/23 03:38:23;;;;;;;5.78;4.45;;;11.30;1.00;;;;;;5015792;28;20070;-82
2022/05/23 03:40:49;;;;;;;6.70;4.93;;;11.20;1.00;;;;;;5016313;28;20042;-82
2022/05/23 03:43:15;;;;;;;6.00;4.78;;;11.20;1.00;;;;;;5016592;28;20010;-82
2022/05/23 03:45:42;;;;;;;4.50;4.10;;;11.30;1.00;;;;;;4991713;28;20014;-82
2022/05/23 03:48:08;;;;;;;6.95;4.40;;;11.30;1.00;;;;;;5016595;28;20010;-82
2022/05/23 03:50:35;;;;;;;7.43;4.55;;;11.30;1.00;;;;;;5000422;28;20023;-82
2022/05/23 03:53:01;;;;;;;5.85;4.35;;;11.40;1.00;;;;;;5016449;28;20017;-81
2022/05/23 03:55:28;;;;;;;7.32;4.25;;;11.40;1.00;;;;;;5015172;28;20089;-82
2022/05/23 03:57:53;;;;;;;7.10;4.90;;;11.40;1.00;;;;;;5015540;28;20054;-81
2022/05/23 04:00:20;;;;;;;6.35;4.43;;;11.40;1.00;;;;;;5019510;28;20032;-81
2022/05/23 04:02:45;;;;;;;7.07;4.88;;;11.50;1.00;;;;;;5019590;28;20015;-81
2022/05/23 04:05:13;;;;;;;6.97;4.53;;;11.50;1.00;;;;;;5019651;28;20025;-81
2022/05/23 04:07:40;;;;;;;4.45;4.00;;;11.60;1.00;;;;;;5020100;28;20042;-82
2022/05/23 04:10:08;;;;;;;5.03;4.40;;;11.80;1.00;;;;;;5019646;28;20018;-81
2022/05/23 04:12:34;;;;;;;4.72;4.15;;;12.90;1.00;;;;;;5002983;28;20029;-82
2022/05/23 04:15:00;;;;;;;6.10;4.47;;;13.10;1.00;;;;;;5019882;28;20026;-82
2022/05/23 04:17:25;;;;;;;6.07;4.28;;;13.30;1.00;;;;;;5019479;28;20086;-82
2022/05/23 04:19:51;;;;;;;6.05;3.85;;;12.70;1.00;;;;;;5019734;28;20072;-82
2022/05/23 04:22:16;;;;;;;5.05;4.00;;;12.40;1.00;;;;;;5018136;28;20061;-82
2022/05/23 04:24:42;;;;;;;4.30;3.75;;;12.30;1.00;;;;;;5018724;28;20050;-81
2022/05/23 04:27:08;;;;;;;4.50;4.10;;;12.50;1.00;;;;;;5024069;28;20029;-82
2022/05/23 04:29:33;;;;;;;4.47;3.83;;;13.70;1.00;;;;;;5019559;28;20089;-82
2022/05/23 04:31:59;;;;;;;3.67;3.38;;;13.90;99.90;;;;;;5019495;28;20078;-82
2022/05/23 04:37:08;;;;;;;4.07;3.60;;;13.80;99.90;;;;;;5018934;28;20290;-84
2022/05/23 04:39:34;;;;;;;4.88;3.70;;;13.60;99.90;;;;;;5018756;28;20049;-84
2022/05/23 04:42:01;;;;;;;3.72;3.42;;;13.50;99.90;;;;;;5019009;28;20035;-83
2022/05/23 04:44:27;;;;;;;4.10;3.67;;;13.40;99.90;;;;;;5019481;28;20014;-84
2022/05/23 04:49:49;;;;;;;5.40;3.53;;;14.50;99.90;;;;;;5019996;28;20025;-84
2022/05/23 04:52:19;;;;;;;4.13;3.38;;;13.90;99.90;;;;;;5019695;28;20013;-84
2022/05/23 04:54:46;;;;;;;5.35;3.40;;;14.30;99.90;;;;;;5016395;28;20074;-84
2022/05/23 04:57:11;;;;;;;5.43;3.35;;;15.10;99.90;;;;;;5019254;28;20051;-84
2022/05/23 04:59:37;;;;;;;4.72;3.30;;;15.70;99.90;;;;;;5018894;28;20026;-84
2022/05/23 05:02:04;;;;;;;5.10;3.67;;;16.60;99.90;;;;;;5019285;28;20025;-84
2022/05/23 05:04:30;;;;;;;5.30;3.38;;;17.60;99.90;;;;;;5019447;28;20203;-85
2022/05/23 05:06:56;;;;;;;3.72;2.83;;;16.70;99.90;;;;;;5019114;28;20038;-84
2022/05/23 05:09:23;;;;;;;5.97;3.67;;;15.20;99.90;;;;;;5018544;28;20070;-84
2022/05/23 05:11:48;;;;;;;4.00;3.10;;;15.80;99.90;;;;;;5019158;28;20026;-85
2022/05/23 05:14:14;;;;;;;4.60;3.25;;;15.30;99.90;;;;;;5019346;28;20042;-84
2022/05/23 05:16:39;;;;;;;5.43;3.25;;;15.00;99.90;;;;;;5018663;28;20050;-83
2022/05/23 05:19:05;;;;;;;4.55;3.50;;;16.50;99.90;;;;;;5010816;28;20057;-85
2022/05/23 05:21:30;;;;;;;4.90;3.08;;;17.60;99.90;;;;;;5018672;28;20018;-84
2022/05/23 05:23:56;;;;;;;5.40;3.20;;;19.30;99.90;;;;;;5018593;28;20022;-85
2022/05/23 05:26:23;;;;;;;7.22;3.30;;;20.10;99.90;;;;;;5018678;28;20023;-85
2022/05/23 05:28:49;;;;;;;3.20;2.72;;;21.10;99.90;;;;;;5017585;28;20094;-84
2022/05/23 05:31:22;;;;;;;4.38;2.88;;;20.30;99.90;;;;;;5006846;28;20014;-85
2022/05/23 05:33:53;;;;;;;4.68;3.15;;;20.40;99.90;;;;;;5000523;28;20090;-84
2022/05/23 05:36:23;;;;;;;4.30;2.85;;;20.90;99.90;;;;;;5006115;28;20053;-85
2022/05/23 05:38:55;;;;;;;2.88;2.60;;;21.70;99.90;;;;;;5014879;28;20078;-85
2022/05/23 05:41:26;;;;;;;3.85;2.75;;;22.70;99.90;;;;;;5018150;28;20015;-85
2022/05/23 05:43:57;;;;;;;4.40;2.95;;;24.40;99.90;;;;;;5017933;28;20050;-85
2022/05/23 05:46:28;;;;;;;3.53;2.47;;;23.40;99.90;;;;;;5012758;28;20011;-85
2022/05/23 05:48:56;;;;;;;4.00;2.90;;;22.90;99.90;;;;;;5006804;28;20019;-85
2022/05/23 05:51:24;;;;;;;3.58;2.70;;;23.20;99.90;;;;;;5015644;28;20019;-85
2022/05/23 05:53:50;;;;;;;4.40;2.85;;;23.50;99.90;;;;;;5000703;28;20038;-85
2022/05/23 05:56:16;;;;;;;4.57;2.72;;;25.10;99.90;;;;;;5009825;28;20058;-85
2022/05/23 05:58:42;;;;;;;3.08;2.75;;;25.80;99.90;;;;;;5017834;28;20029;-85
2022/05/23 06:01:08;;;;;;;4.03;2.90;;;24.00;99.90;;;;;;5017798;28;20018;-85
2022/05/23 06:03:34;;;;;;;6.68;3.00;;;25.40;99.90;;;;;;5017858;28;20046;-83
2022/05/23 06:11:29;;;;;;;5.82;2.53;;;25.30;99.90;;;;;;5017896;28;20079;-82
2022/05/23 06:13:59;;;;;;;3.45;2.70;;;26.80;99.90;;;;;;5017693;28;20249;-83
2022/05/23 06:16:27;;;;;;;4.57;2.88;;;25.40;99.90;;;;;;5009590;28;20061;-83
2022/05/23 06:18:53;;;;;;;5.15;3.65;;;25.20;99.90;;;;;;5017359;28;20069;-83
2022/05/23 06:21:20;;;;;;;5.68;3.00;;;25.40;99.90;;;;;;5017066;28;20029;-83
2022/05/23 06:23:46;;;;;;;3.13;2.70;;;26.10;99.90;;;;;;5000800;28;20037;-83
2022/05/23 06:26:16;;;;;;;2.63;2.40;;;26.50;99.90;;;;;;5000559;28;20019;-82
2022/05/23 06:28:45;;;;;;;4.15;3.55;;;24.50;99.90;;;;;;5017402;28;20029;-83
2022/05/23 06:31:12;;;;;;;5.03;2.90;;;23.50;99.90;;;;;;5017192;28;20026;-83
2022/05/23 06:33:38;;;;;;;5.53;3.08;;;22.40;99.90;;;;;;5017370;28;20026;-84
2022/05/23 06:36:05;;;;;;;4.28;3.10;;;22.40;99.90;;;;;;5016094;28;20093;-85
2022/05/23 06:38:31;;;;;;;5.05;3.08;;;23.70;99.90;;;;;;5012730;28;20042;-84
2022/05/23 06:40:57;;;;;;;3.90;3.03;;;24.90;99.90;;;;;;5016159;28;20070;-84
2022/05/23 06:43:23;;;;;;;6.53;3.47;;;25.10;99.90;;;;;;5016425;28;20062;-84
2022/05/23 06:45:48;;;;;;;3.42;3.13;;;25.20;99.90;;;;;;5017102;28;20045;-83
2022/05/23 06:48:14;;;;;;;3.25;2.70;;;27.50;99.90;;;;;;5014295;28;20018;-86
2022/05/23 06:50:40;;;;;;;5.18;3.40;;;29.60;99.90;;;;;;5010495;28;20462;-83
2022/05/23 06:53:05;;;;;;;4.20;3.30;;;26.60;99.90;;;;;;4993322;28;20014;-83
2022/05/23 06:55:31;;;;;;;5.60;3.40;;;24.70;99.90;;;;;;4995035;28;20034;-85
2022/05/23 06:57:57;;;;;;;4.75;3.35;;;25.70;99.90;;;;;;4993956;28;20081;-83
2022/05/23 07:00:23;;;;;;;3.97;3.40;;;24.20;99.90;;;;;;5010749;28;20026;-83
2022/05/23 07:02:49;;;;;;;3.47;3.15;;;24.30;99.90;;;;;;4990340;28;20085;-83
2022/05/23 07:13:27;;;;;;;5.38;4.00;;;23.90;99.90;;;;;;4999910;28;20033;-82
2022/05/23 07:15:55;;;;;;;5.68;3.70;;;22.60;99.90;;;;;;4986810;28;20034;-83
2022/05/23 07:18:22;;;;;;;7.28;3.85;;;24.50;99.90;;;;;;4957617;28;20034;-84
2022/05/23 07:20:47;;;;;;;4.45;3.20;;;24.50;99.90;;;;;;4978844;28;20463;-83
2022/05/23 07:23:14;;;;;;;3.95;3.40;;;28.10;99.90;;;;;;4977942;28;20061;-83
2022/05/23 07:25:40;;;;;;;6.22;3.70;;;31.20;99.90;;;;;;4994647;28;20026;-83
2022/05/23 07:28:06;;;;;;;4.45;3.58;;;32.50;99.90;;;;;;4977353;28;20027;-83
2022/05/23 07:30:32;;;;;;;6.65;3.90;;;33.00;99.90;;;;;;4977750;28;20032;-83
2022/05/23 07:32:58;;;;;;;4.32;3.55;;;32.80;99.90;;;;;;4995625;28;20106;-83
2022/05/23 07:35:25;;;;;;;4.05;3.45;;;31.70;99.90;;;;;;4981079;28;20486;-83
2022/05/23 07:37:50;;;;;;;7.03;3.70;;;28.20;99.90;;;;;;4998136;28;20037;-83
2022/05/23 07:40:16;;;;;;;4.78;3.63;;;28.90;99.90;;;;;;4997134;28;20015;-83
2022/05/23 07:42:43;;;;;;;5.15;3.70;;;30.10;99.90;;;;;;4982094;28;20022;-83
2022/05/23 07:45:11;;;;;;;5.78;4.03;;;31.50;99.90;;;;;;4982410;28;20030;-83
2022/05/23 07:47:37;;;;;;;4.45;3.15;;;30.20;99.90;;;;;;4997844;28;20033;-82
2022/05/23 07:50:04;;;;;;;6.20;3.80;;;32.30;99.90;;;;;;4981206;28;20031;-82
2022/05/23 07:52:29;;;;;;;4.47;3.92;;;32.30;99.90;;;;;;4998217;28;20673;-83
2022/05/23 08:00:32;;;;;;;7.97;4.10;;;33.10;99.90;;;;;;4978560;28;20166;-83
2022/05/23 08:03:24;;;;;;;4.40;3.65;;;33.70;99.90;;;;;;4978137;28;20022;-83
2022/05/23 08:05:50;;;;;;;7.65;4.30;;;30.50;99.90;;;;;;4974295;28;20546;-83
2022/05/23 08:08:15;;;;;;;5.00;4.03;;;30.10;99.90;;;;;;4960716;28;20490;-83
2022/05/23 08:10:41;;;;;;;4.85;4.43;;;29.20;99.90;;;;;;4961123;28;20517;-83
2022/05/23 08:13:09;;;;;;;4.70;3.97;;;28.50;99.90;;;;;;4978534;28;20054;-84
2022/05/23 08:15:39;;;;;;;6.70;4.03;;;27.50;99.90;;;;;;4961814;28;20030;-84
2022/05/23 08:18:09;;;;;;;6.60;4.30;;;28.60;99.90;;;;;;4979988;28;20063;-84
2022/05/23 08:20:37;;;;;;;4.22;3.85;;;27.30;99.90;;;;;;4982225;28;20106;-83
2022/05/23 08:23:03;;;;;;;6.72;4.45;;;27.10;99.90;;;;;;4966879;28;20030;-83
2022/05/23 08:25:29;;;;;;;5.72;4.68;;;26.60;99.90;;;;;;4983205;28;20409;-84
2022/05/23 08:27:55;;;;;;;6.03;4.70;;;28.10;99.90;;;;;;4980250;28;20541;-84
2022/05/23 08:30:23;;;;;;;7.25;4.78;;;26.30;99.90;;;;;;4964110;28;20037;-84
2022/05/23 08:32:50;;;;;;;7.88;5.13;;;27.70;99.90;;;;;;4964157;28;20031;-84
2022/05/23 08:35:16;;;;;;;5.88;4.55;;;27.40;99.90;;;;;;4976168;28;20023;-84
2022/05/23 08:37:42;;;;;;;8.10;4.72;;;28.00;99.90;;;;;;4958822;28;20074;-84
2022/05/23 08:40:10;;;;;;;7.95;4.85;;;28.80;99.90;;;;;;4979366;28;20042;-84
2022/05/23 08:42:56;;;;;;;5.55;4.95;;;29.00;99.90;;;;;;4981803;28;20022;-84
2022/05/23 08:45:25;;;;;;;7.28;4.40;;;29.90;99.90;;;;;;4965347;28;20431;-84
2022/05/23 08:48:29;;;;;;;5.90;4.78;;;31.10;99.90;;;;;;4980523;28;20033;-83
2022/05/23 08:51:17;;;;;;;4.95;4.38;;;32.20;99.90;;;;;;4966873;28;20046;-83
2022/05/23 08:53:56;;;;;;;6.05;4.60;;;31.80;99.90;;;;;;4979655;28;20517;-84
2022/05/23 08:56:34;;;;;;;7.15;5.18;;;33.50;99.90;;;;;;4976809;28;20081;-84
2022/05/23 08:59:02;;;;;;;6.80;4.70;;;37.10;99.90;;;;;;4981412;28;20045;-84
2022/05/23 09:01:49;;;;;;;8.25;5.05;;;36.20;99.90;;;;;;5012766;28;20022;-84
2022/05/23 09:04:35;;;;;;;5.80;4.22;;;34.20;99.90;;;;;;4995401;28;20019;-84
2022/05/23 09:07:03;;;;;;;6.32;5.28;;;36.90;99.90;;;;;;4995477;28;20034;-84
2022/05/23 09:09:31;;;;;;;8.05;4.95;;;34.60;99.90;;;;;;4995258;28;20517;-84
2022/05/23 09:12:05;;;;;;;6.35;5.00;;;33.00;99.90;;;;;;4996758;28;20023;-84
2022/05/23 09:14:31;;;;;;;7.75;5.07;;;31.40;99.90;;;;;;4995432;28;20030;-84
2022/05/23 09:16:57;;;;;;;6.45;4.40;;;32.30;99.90;;;;;;4996464;28;20034;-84
2022/05/23 09:19:32;;;;;;;7.80;4.70;;;31.60;99.90;;;;;;5011882;28;20034;-84
2022/05/23 09:22:14;;;;;;;5.53;4.90;;;32.80;99.90;;;;;;4998039;28;20030;-84
2022/05/23 09:24:58;;;;;;;7.63;5.38;;;35.80;99.90;;;;;;5013093;28;20022;-85
2022/05/23 09:27:30;;;;;;;8.68;5.38;;;34.20;99.90;;;;;;4996659;28;20030;-84
2022/05/23 09:29:58;;;;;;;5.68;4.85;;;33.40;99.90;;;;;;5011770;28;20022;-84
2022/05/23 09:32:27;;;;;;;7.45;5.00;;;32.90;99.90;;;;;;4989484;28;20026;-84
2022/05/23 09:35:03;;;;;;;6.60;5.03;;;32.00;99.90;;;;;;4977940;28;20039;-85
2022/05/23 09:37:42;;;;;;;7.13;5.20;;;35.10;99.90;;;;;;4996071;28;20127;-84
2022/05/23 09:40:12;;;;;;;5.40;4.90;;;35.90;99.90;;;;;;4996398;28;20054;-84
2022/05/23 09:48:13;;;;;;;6.47;5.60;;;34.40;99.90;;;;;;4980300;28;20046;-84
2022/05/23 09:50:45;;;;;;;6.65;5.03;;;32.30;99.90;;;;;;4992815;28;20109;-84
2022/05/23 09:53:30;;;;;;;7.75;5.57;;;33.90;99.90;;;;;;4996174;28;20494;-84
2022/05/23 09:56:28;;;;;;;7.68;5.80;;;35.80;99.90;;;;;;4996860;28;20497;-84
2022/05/23 09:58:55;;;;;;;7.73;5.80;;;32.00;99.90;;;;;;4996725;28;20069;-85
2022/05/23 10:01:30;;;;;;;8.23;5.95;;;32.40;99.90;;;;;;4997299;28;20134;-85
2022/05/23 10:03:57;;;;;;;6.20;5.60;;;35.80;99.90;;;;;;4997650;28;20057;-84
2022/05/23 10:06:40;;;;;;;6.75;5.53;;;38.30;99.90;;;;;;4997861;28;20037;-85
2022/05/23 10:09:25;;;;;;;7.93;5.32;;;38.50;99.90;;;;;;4998825;28;20023;-85
2022/05/23 10:11:56;;;;;;;6.45;5.00;;;38.40;99.90;;;;;;4997632;28;20466;-84
2022/05/23 10:14:24;;;;;;;7.95;5.68;;;36.40;99.90;;;;;;4997511;28;20014;-85
2022/05/23 10:16:56;;;;;;;8.77;6.85;;;33.80;99.90;;;;;;4998251;28;20033;-84
2022/05/23 10:19:33;;;;;;;6.60;5.38;;;31.30;99.90;;;;;;4978365;28;20038;-84
2022/05/23 10:22:06;;;;;;;6.88;5.82;;;35.20;99.90;;;;;;4980329;28;20015;-84
2022/05/23 10:24:34;;;;;;;6.78;6.07;;;35.90;99.90;;;;;;4962854;28;20018;-84
2022/05/23 10:27:06;;;;;;;7.85;6.18;;;37.30;99.90;;;;;;4972948;28;20039;-84
2022/05/23 10:29:55;;;;;;;6.60;5.43;;;34.60;99.90;;;;;;4979879;28;20038;-84
2022/05/23 10:32:50;;;;;;;7.22;5.28;;;33.10;99.90;;;;;;4990646;28;20046;-84
2022/05/23 10:35:23;;;;;;;5.97;5.07;;;30.50;99.90;;;;;;4993948;28;20027;-84
2022/05/23 10:37:51;;;;;;;7.38;5.28;;;30.80;99.90;;;;;;4988189;28;20030;-84
2022/05/23 10:43:21;;;;;;;6.03;4.97;;;30.40;99.90;;;;;;4996042;28;20029;-84
2022/05/23 10:45:59;;;;;;;7.45;6.38;;;30.10;99.90;;;;;;4994079;28;20368;-84
2022/05/23 10:48:48;;;;;;;7.72;5.70;;;30.10;99.90;;;;;;4989339;28;20029;-84
2022/05/23 10:51:23;;;;;;;6.50;5.90;;;30.80;99.90;;;;;;4979526;28;20425;-84
2022/05/23 10:54:06;;;;;;;6.70;5.97;;;30.70;99.90;;;;;;4985967;28;20264;-84
2022/05/23 10:57:09;;;;;;;6.18;5.00;;;30.70;99.90;;;;;;4972417;28;20105;-84
2022/05/23 11:00:02;;;;;;;7.65;4.72;;;31.80;99.90;;;;;;4998856;28;20061;-84
2022/05/23 11:02:39;;;;;;;7.95;5.30;;;32.10;99.90;;;;;;4998723;28;20034;-84
2022/05/23 11:05:11;;;;;;;8.85;6.57;;;31.80;99.90;;;;;;4982991;28;20621;-84
2022/05/23 11:07:46;;;;;;;8.27;5.85;;;31.30;99.90;;;;;;4983172;28;20034;-84
2022/05/23 11:10:27;;;;;;;8.65;6.80;;;31.30;99.90;;;;;;5003697;28;20030;-84
2022/05/23 11:13:04;;;;;;;10.27;7.03;;;30.40;99.90;;;;;;5000115;28;20069;-84
2022/05/23 11:15:40;;;;;;;8.27;6.72;;;29.50;99.90;;;;;;5004588;28;20022;-84
2022/05/23 11:18:27;;;;;;;6.57;5.90;;;29.50;99.90;;;;;;5002360;28;20030;-85
2022/05/23 11:20:57;;;;;;;8.43;6.22;;;29.40;99.90;;;;;;5004084;28;20048;-84
2022/05/23 11:23:45;;;;;;;6.43;5.50;;;30.10;99.90;;;;;;5006909;28;20022;-84
2022/05/23 11:26:26;;;;;;;6.53;5.28;;;31.20;99.90;;;;;;5017077;28;20029;-84
2022/05/23 11:34:54;;;;;;;5.68;3.95;;;31.00;99.90;;;;;;4997763;28;20033;-84
2022/05/23 11:39:57;;;;;;;6.10;4.45;;;30.90;99.90;;;;;;4997534;28;20094;-84
2022/05/23 11:42:35;;;;;;;6.18;4.35;;;30.60;99.90;;;;;;5000215;28;20462;-84
2022/05/23 11:48:34;;;;;;;4.35;3.40;;;28.70;99.90;;;;;;5003578;28;20045;-85
2022/05/23 11:51:30;;;;;;;4.43;3.60;;;29.10;99.90;;;;;;5005200;28;20027;-83
2022/05/23 11:54:08;;;;;;;5.68;3.80;;;28.80;99.90;;;;;;5001950;28;20022;-84
2022/05/23 11:56:48;;;;;;;6.32;3.80;;;29.20;99.90;;;;;;4990236;28;20129;-84
2022/05/23 11:59:22;;;;;;;4.65;3.85;;;29.80;99.90;;;;;;4979735;28;20058;-84
2022/05/23 12:02:08;;;;;;;6.22;4.35;;;30.30;99.90;;;;;;4985848;28;20035;-84
2022/05/23 12:04:55;;;;;;;6.05;4.35;;;30.20;99.90;;;;;;4982881;28;20390;-84
2022/05/23 12:07:42;;;;;;;5.72;5.15;;;30.40;99.90;;;;;;4983432;28;20257;-84
2022/05/23 12:10:23;;;;;;;7.10;4.65;;;30.30;99.90;;;;;;4978620;28;20027;-84
2022/05/23 12:12:50;;;;;;;6.95;5.28;;;30.00;99.90;;;;;;4978958;28;20031;-84
2022/05/23 12:15:47;;;;;;;10.43;4.90;;;29.70;99.90;;;;;;4975419;28;20102;-84
2022/05/23 12:18:21;;;;;;;7.57;4.57;;;29.40;99.90;;;;;;4958499;28;20511;-84
2022/05/23 12:21:09;;;;;;;5.90;4.55;;;29.40;99.90;;;;;;4960158;28;20062;-83
2022/05/23 12:23:44;;;;;;;5.07;4.57;;;29.20;99.90;;;;;;4929486;28;20043;-84
2022/05/23 12:26:09;;;;;;;6.13;4.38;;;29.20;99.90;;;;;;4978151;28;20390;-84
2022/05/23 12:29:24;;;;;;;7.50;5.03;;;29.10;99.90;;;;;;4980740;28;20471;-84
2022/05/23 12:32:04;;;;;;;5.53;4.95;;;28.80;99.90;;;;;;4939157;28;20104;-84
2022/05/23 12:34:33;;;;;;;6.50;5.20;;;28.80;99.90;;;;;;4973825;28;20383;-84
2022/05/23 12:37:00;;;;;;;5.55;5.03;;;28.60;99.90;;;;;;4979740;28;20027;-84
2022/05/23 12:40:03;;;;;;;6.03;5.05;;;28.70;99.90;;;;;;4979864;28;20073;-85
2022/05/23 12:46:13;;;;;;;7.57;6.28;;;28.00;99.90;;;;;;4979109;28;20394;-84
2022/05/23 12:49:17;;;;;;;8.73;6.70;;;27.90;99.90;;;;;;4979450;28;20106;-84
2022/05/23 12:52:10;;;;;;;8.07;5.47;;;27.20;99.90;;;;;;4963616;28;20026;-83
2022/05/23 12:54:50;;;;;;;6.03;5.00;;;27.20;99.90;;;;;;4980178;28;20022;-83
2022/05/23 12:57:35;;;;;;;8.40;6.30;;;26.90;99.90;;;;;;4991431;28;20056;-83
2022/05/23 13:00:14;;;;;;;17.35;13.98;;;27.10;99.90;;;;;;4990886;28;20041;-83
2022/05/23 13:02:59;;;;;;;16.33;14.68;;;26.40;99.90;;;;;;4998140;28;20129;-83
2022/05/23 13:05:45;;;;;;;14.48;12.98;;;26.10;99.90;;;;;;4998609;28;20468;-83
2022/05/23 13:08:30;;;;;;;17.17;14.65;;;25.80;99.90;;;;;;4997436;28;20031;-83
2022/05/23 13:11:03;;;;;;;18.35;14.65;;;25.70;99.90;;;;;;4998223;28;20080;-84
2022/05/23 13:13:41;;;;;;;15.95;14.20;;;25.40;99.90;;;;;;4998381;28;20034;-83
2022/05/23 13:16:20;;;;;;;20.17;14.50;;;25.00;99.90;;;;;;4994247;28;20093;-83
2022/05/23 13:24:48;;;;;;;15.23;13.63;;;24.60;99.90;;;;;;4998993;28;20097;-83
2022/05/23 13:27:03;;;;;;;15.02;12.35;;;24.60;99.90;;;;;;4980971;28;20027;-83
2022/05/23 13:29:30;;;;;;;15.07;12.43;;;24.40;99.90;;;;;;4959998;28;20047;-83
2022/05/23 13:32:10;;;;;;;18.48;13.43;;;24.10;99.90;;;;;;4990849;28;20106;-83
2022/05/23 13:34:38;;;;;;;16.92;12.88;;;24.50;99.90;;;;;;4996816;28;20113;-83
2022/05/23 13:37:06;;;;;;;17.42;13.25;;;24.30;99.90;;;;;;4996912;28;20060;-84
2022/05/23 13:39:32;;;;;;;15.75;12.43;;;24.30;99.90;;;;;;5004125;28;20142;-86
2022/05/23 13:42:03;;;;;;;20.52;13.38;;;24.10;99.90;;;;;;4998555;28;20026;-82
2022/05/23 13:44:32;;;;;;;19.60;15.48;;;23.80;99.90;;;;;;4997005;28;20085;-83
2022/05/23 13:47:11;;;;;;;;;;;24.10;99.90;;;;;;5000276;28;20037;-82
2022/05/23 13:49:43;;;;;;;19.08;14.43;;;23.80;99.90;;;;;;4998463;28;19916;-82
2022/05/23 13:52:15;;;;;;;23.42;15.85;;;23.90;99.90;;;;;;4998513;28;20030;-82
2022/05/23 13:54:48;;;;;;;20.58;14.60;;;24.00;99.90;;;;;;4996502;28;20030;-82
2022/05/23 13:57:19;;;;;;;22.58;15.07;;;23.60;99.90;;;;;;4995160;28;20046;-82
2022/05/23 14:00:20;;;;;;;30.08;16.20;;;23.30;99.90;;;;;;4996308;28;20067;-82
2022/05/23 14:03:02;;;;;;;19.73;13.18;;;23.30;99.90;;;;;;4963323;28;20054;-83
2022/05/23 14:05:30;;;;;;;21.08;14.93;;;22.90;99.90;;;;;;4979154;28;20028;-80
2022/05/23 14:07:56;;;;;;;18.75;15.23;;;22.40;99.90;;;;;;4961970;28;20063;-81
2022/05/23 14:10:27;;;;;;;22.35;15.45;;;22.20;99.90;;;;;;4977704;28;20084;-81
2022/05/23 14:12:55;;;;;;;16.48;14.43;;;22.20;99.90;;;;;;4977435;28;20034;-82
2022/05/23 14:15:24;;;;;;;20.25;14.00;;;22.10;99.90;;;;;;4995617;28;20382;-82
2022/05/23 14:17:51;;;;;;;18.52;16.33;;;21.80;99.90;;;;;;4993729;28;20061;-82